Meishomaru — JD3044 — position and weather

sailwx.info

Track history (hours):
 
Tides and Currents Weather Stations Pressure Air Temp Water Temp Dewpoint Dewpoint Depression Visibility Wind Speed Wind Dir Waves Ship Positions

Meishomaru

Last reported at 2018-Apr-24 09:59 UTC. Time now 2018-Apr-24 10:23 UTC.
Position N 34°23' E 135°11'.

Length 68 m; draft 4 m.

Type: Tanker. MMSI: 431001216.

Date/timePositionNaut miles runAvg speedWind from/ knotsBaromVisibWave heightAir tempDewpointWater temp
2018-Apr-24 09:59N 34°23' E 135°11'1 1.5
2018-Apr-24 09:30N 34°24' E 135°10'611.1
2018-Apr-24 09:00N 34°29' E 135°07'611.5
2018-Apr-24 08:30N 34°34' E 135°04'510.0
2018-Apr-24 08:00N 34°37' E 134°59'5 9.6
2018-Apr-24 07:30N 34°38' E 134°54'511.0
2018-Apr-24 07:00N 34°40' E 134°48'611.4
2018-Apr-24 06:31N 34°43' E 134°41'611.5
2018-Apr-24 05:58N 34°42' E 134°34'1 2.7
2018-Apr-24 05:29N 34°42' E 134°32'0 0.0
2018-Apr-24 05:00N 34°42' E 134°32'4 8.2
2018-Apr-24 04:28N 34°46' E 134°35'0 0.1
2018-Apr-24 01:22N 34°46' E 134°35'4 8.6
2018-Apr-24 00:50N 34°43' E 134°40'411.9
2018-Apr-24 00:30N 34°42' E 134°44'611.4
2018-Apr-24 00:00N 34°39' E 134°50'510.1
2018-Apr-23 23:30N 34°37' E 134°56'510.3
2018-Apr-23 23:00N 34°37' E 135°02'510.1
2018-Apr-23 22:30N 34°32' E 135°05'612.6
2018-Apr-23 22:00N 34°26' E 135°03'713.0
2018-Apr-23 21:30N 34°20' E 135°00'612.7
2018-Apr-23 21:00N 34°14' E 134°60'713.1
2018-Apr-23 20:30N 34°07' E 135°01'613.0
2018-Apr-23 20:00N 34°01' E 135°01'612.9
2018-Apr-23 19:30N 33°54' E 135°02'102 8.0
2018-Apr-23 06:43N 34°42' E 136°52'311.5
2018-Apr-23 06:29N 34°44' E 136°50'511.4
2018-Apr-23 06:00N 34°49' E 136°47'611.4
2018-Apr-23 05:31N 34°54' E 136°44'611.3
2018-Apr-23 05:00N 34°58' E 136°40'1 1.1
2018-Apr-23 04:29N 34°59' E 136°39'0 0.0
2018-Apr-23 03:59N 34°59' E 136°39'0 0.0
2018-Apr-23 03:29N 34°59' E 136°39'0 0.0
2018-Apr-23 02:47N 34°59' E 136°39'0 0.0
2018-Apr-23 02:23N 34°59' E 136°39'0 0.0
2018-Apr-22 23:56N 34°59' E 136°39'2 3.8
2018-Apr-22 23:30N 34°58' E 136°41'612.7
2018-Apr-22 23:01N 34°52' E 136°44'712.8
2018-Apr-22 22:30N 34°46' E 136°47'612.9
2018-Apr-22 22:00N 34°41' E 136°51'36 9.9
2018-Apr-22 18:18N 34°05' E 136°43'85 9.6
2018-Apr-22 09:31N 33°51' E 135°03'212.7
2018-Apr-22 09:23N 33°53' E 135°01'512.6
2018-Apr-22 09:00N 33°58' E 135°01'612.3
2018-Apr-22 08:31N 34°03' E 135°00'612.3
2018-Apr-22 08:00N 34°10' E 134°60'713.8
2018-Apr-22 07:31N 34°16' E 134°59'612.6
2018-Apr-22 07:00N 34°23' E 135°00'611.7
2018-Apr-22 06:31N 34°28' E 135°02'612.0
2018-Apr-22 06:01N 34°34' E 135°03'5 9.4
2018-Apr-22 05:30N 34°37' E 134°58'611.7
2018-Apr-22 05:00N 34°38' E 134°51'612.2
2018-Apr-22 04:30N 34°41' E 134°45'612.4
2018-Apr-22 04:00N 34°44' E 134°38'2 0.3
2018-Apr-21 19:13N 34°45' E 134°36'0 0.0
2018-Apr-21 18:55N 34°45' E 134°36'0 0.0
2018-Apr-21 18:19N 34°45' E 134°36'0 0.0
2018-Apr-21 17:31N 34°45' E 134°36'0 0.0
2018-Apr-21 17:01N 34°45' E 134°36'0 0.1
2018-Apr-21 16:55N 34°45' E 134°36'0 0.0
2018-Apr-21 16:25N 34°45' E 134°36'0 0.0
2018-Apr-21 15:37N 34°45' E 134°36'0 0.0
2018-Apr-21 15:07N 34°45' E 134°36'0 0.0
2018-Apr-21 14:55N 34°45' E 134°36'0 0.0
2018-Apr-21 14:25N 34°45' E 134°36'1 3.2
2018-Apr-21 14:00N 34°44' E 134°34'612.1
2018-Apr-21 13:29N 34°41' E 134°28'912.2
2018-Apr-21 12:44N 34°37' E 134°18'612.1
2018-Apr-21 12:13N 34°33' E 134°11'312.1
2018-Apr-21 12:00N 34°32' E 134°09'810.7
2018-Apr-21 11:16N 34°27' E 134°02'310.8
2018-Apr-21 11:00N 34°25' E 133°59'612.2
2018-Apr-21 10:30N 34°25' E 133°52'26 1.1
2018-Apr-20 10:54N 34°21' E 134°22'712.2
2018-Apr-20 10:20N 34°18' E 134°30'512.4
2018-Apr-20 09:57N 34°17' E 134°35'511.7
2018-Apr-20 09:29N 34°13' E 134°40'611.9
2018-Apr-20 09:00N 34°09' E 134°44'612.1
2018-Apr-20 08:30N 34°04' E 134°49'712.2
2018-Apr-20 07:57N 33°59' E 134°54'512.0
2018-Apr-20 07:30N 33°55' E 134°58'17410.6
2018-Apr-19 15:02N 34°33' E 138°24'112.3
2018-Apr-19 14:56N 34°33' E 138°25'511.8
2018-Apr-19 14:29N 34°33' E 138°32'911.8
2018-Apr-19 13:46N 34°34' E 138°42'411.0
2018-Apr-19 13:21N 34°35' E 138°48'612.5
2018-Apr-19 12:54N 34°36' E 138°54'712.0
2018-Apr-19 12:17N 34°40' E 139°01'312.2
2018-Apr-19 12:00N 34°43' E 139°03'611.6
2018-Apr-19 11:30N 34°48' E 139°07'611.4
2018-Apr-19 10:58N 34°53' E 139°11'711.6
2018-Apr-19 10:22N 34°57' E 139°18'411.4
2018-Apr-19 10:00N 34°59' E 139°23'510.8
2018-Apr-19 09:30N 35°02' E 139°29'611.4
2018-Apr-19 09:00N 35°04' E 139°35'612.4
2018-Apr-19 08:30N 35°07' E 139°41'611.8
2018-Apr-19 08:00N 35°12' E 139°46'510.2
2018-Apr-19 07:30N 35°17' E 139°45'511.0
2018-Apr-19 07:00N 35°22' E 139°42'510.6
2018-Apr-19 06:30N 35°27' E 139°46'611.2
2018-Apr-19 06:00N 35°30' E 139°51'711.5
2018-Apr-19 05:23N 35°32' E 139°60'3 7.9
2018-Apr-19 05:00N 35°32' E 140°03'0 0.0
2018-Apr-19 00:18N 35°32' E 140°03'0 0.0
2018-Apr-18 23:48N 35°32' E 140°03'1 3.4
2018-Apr-18 23:30N 35°32' E 140°02'3 5.4
2018-Apr-18 23:00N 35°31' E 139°59'3 7.0
2018-Apr-18 22:30N 35°29' E 139°56'1 1.1
2018-Apr-18 21:57N 35°28' E 139°55'0 0.0
2018-Apr-18 21:15N 35°28' E 139°55'0 0.0
2018-Apr-18 20:42N 35°28' E 139°55'0 0.0
2018-Apr-18 20:30N 35°28' E 139°55'0 0.1
2018-Apr-18 19:57N 35°28' E 139°55'0 0.0
2018-Apr-18 19:30N 35°28' E 139°55'0 0.0
2018-Apr-18 19:00N 35°28' E 139°55'0 0.0
2018-Apr-18 18:30N 35°28' E 139°55'0 0.0
2018-Apr-18 17:57N 35°28' E 139°55'0 0.0
2018-Apr-18 17:30N 35°28' E 139°55'0 0.0
2018-Apr-18 17:00N 35°28' E 139°55'0 0.0
2018-Apr-18 16:30N 35°28' E 139°55'0 0.1
2018-Apr-18 16:00N 35°28' E 139°55'0 0.0
2018-Apr-18 15:27N 35°28' E 139°55'0 0.0
2018-Apr-18 15:00N 35°28' E 139°55'0 0.0
2018-Apr-18 14:15N 35°28' E 139°55'0 0.0
2018-Apr-18 14:00N 35°28' E 139°55'0 0.0
2018-Apr-18 13:30N 35°28' E 139°55'0 0.0
2018-Apr-18 12:54N 35°28' E 139°55'0 0.0
2018-Apr-18 12:27N 35°28' E 139°55'0 0.0
2018-Apr-18 12:00N 35°28' E 139°55'0 0.0
2018-Apr-18 11:30N 35°28' E 139°55'3 5.2
2018-Apr-18 11:00N 35°28' E 139°52'611.7
2018-Apr-18 10:30N 35°25' E 139°47'611.6
2018-Apr-18 10:00N 35°19' E 139°44'611.6
2018-Apr-18 09:30N 35°14' E 139°47'611.7
2018-Apr-18 09:00N 35°08' E 139°46'611.2
2018-Apr-18 08:28N 35°03' E 139°42'511.6
2018-Apr-18 08:00N 34°60' E 139°36'1812.0
2018-Apr-18 06:29N 34°49' E 139°18'612.5
2018-Apr-18 05:59N 34°44' E 139°14'611.7
2018-Apr-18 05:30N 34°40' E 139°09'811.0
2018-Apr-18 04:49N 34°37' E 139°01'411.1
2018-Apr-18 04:29N 34°35' E 138°56'612.3
2018-Apr-18 04:00N 34°34' E 138°49'712.2
2018-Apr-18 03:26N 34°33' E 138°41'612.0
2018-Apr-18 02:58N 34°32' E 138°34'811.6
2018-Apr-18 02:18N 34°31' E 138°25'711.2
2018-Apr-18 01:39N 34°31' E 138°16'211.3
2018-Apr-18 01:30N 34°30' E 138°14'74 9.2
2018-Apr-17 17:25N 34°09' E 136°48'90 9.0
2018-Apr-17 07:26N 33°51' E 135°02'612.8
2018-Apr-17 07:00N 33°55' E 134°57'613.0
2018-Apr-17 06:30N 34°00' E 134°52'713.2
2018-Apr-17 06:00N 34°05' E 134°47'813.9
2018-Apr-17 05:24N 34°12' E 134°41'614.2
2018-Apr-17 05:00N 34°17' E 134°38'612.9
2018-Apr-17 04:30N 34°23' E 134°38'612.6
2018-Apr-17 04:00N 34°30' E 134°39'612.4
2018-Apr-17 03:30N 34°36' E 134°38'612.5
2018-Apr-17 03:00N 34°42' E 134°37'4 1.0
2018-Apr-16 22:59N 34°46' E 134°35'1 1.4
2018-Apr-16 22:29N 34°45' E 134°36'0 0.0
2018-Apr-16 21:53N 34°45' E 134°36'0 0.0
2018-Apr-16 21:29N 34°45' E 134°36'0 0.0
2018-Apr-16 20:59N 34°45' E 134°36'0 0.0
2018-Apr-16 17:11N 34°45' E 134°36'0 0.0
2018-Apr-16 16:59N 34°45' E 134°36'2 3.6
2018-Apr-16 16:30N 34°44' E 134°34'612.5
2018-Apr-16 15:59N 34°41' E 134°27'912.5
2018-Apr-16 15:16N 34°37' E 134°18'812.5
2018-Apr-16 14:39N 34°33' E 134°10'7710.9
2018-Apr-16 07:35N 34°05' E 132°42'111.5
2018-Apr-16 07:30N 34°05' E 132°41'611.6
2018-Apr-16 07:00N 34°03' E 132°35'710.7
2018-Apr-16 06:21N 34°03' E 132°26'612.7
2018-Apr-16 05:53N 34°07' E 132°22'512.6
2018-Apr-16 05:30N 34°10' E 132°17'3 5.6
2018-Apr-16 05:00N 34°12' E 132°15'0 0.0
2018-Apr-15 23:15N 34°12' E 132°15'0 0.2
2018-Apr-15 23:01N 34°12' E 132°15'1 2.1
2018-Apr-15 22:30N 34°12' E 132°16'0 0.3
2018-Apr-15 21:55N 34°12' E 132°16'0 0.1
2018-Apr-15 21:28N 34°12' E 132°16'0 0.0
2018-Apr-15 20:58N 34°12' E 132°16'0 0.0
2018-Apr-15 20:28N 34°12' E 132°16'0 0.0
2018-Apr-15 19:58N 34°12' E 132°16'0 0.0
2018-Apr-15 19:28N 34°12' E 132°16'0 0.0
2018-Apr-15 18:55N 34°12' E 132°16'0 0.0
2018-Apr-15 18:28N 34°12' E 132°16'0 0.0
2018-Apr-15 17:58N 34°12' E 132°16'2 3.6
2018-Apr-15 17:30N 34°11' E 132°17'612.3
2018-Apr-15 17:00N 34°06' E 132°23'811.5
2018-Apr-15 16:16N 34°02' E 132°31'313.2
2018-Apr-15 16:00N 34°03' E 132°35'8711.9
2018-Apr-15 08:41N 34°35' E 134°13'1612.8
2018-Apr-15 07:27N 34°43' E 134°30'5 0.3
2018-Apr-14 15:26N 34°45' E 134°36'2512.1
2018-Apr-14 13:23N 34°33' E 134°10'  
Track history (hours):
 
Tides and Currents Weather Stations Pressure Air Temp Water Temp Dewpoint Dewpoint Depression Visibility Wind Speed Wind Dir Waves Ship Positions

Meishomaru

Last reported at 2018-Apr-24 09:59 UTC. Time now 2018-Apr-24 10:23 UTC.
Position N 34°23' E 135°11'.

Length 68 m; draft 4 m.

Type: Tanker. MMSI: 431001216.

Date/timePositionNaut miles runAvg speedWind from/ knotsBaromVisibWave heightAir tempDewpointWater temp
2018-Apr-24 09:59N 34°23' E 135°11'1 1.5
2018-Apr-24 09:30N 34°24' E 135°10'611.1
2018-Apr-24 09:00N 34°29' E 135°07'611.5
2018-Apr-24 08:30N 34°34' E 135°04'510.0
2018-Apr-24 08:00N 34°37' E 134°59'5 9.6
2018-Apr-24 07:30N 34°38' E 134°54'511.0
2018-Apr-24 07:00N 34°40' E 134°48'611.4
2018-Apr-24 06:31N 34°43' E 134°41'611.5
2018-Apr-24 05:58N 34°42' E 134°34'1 2.7
2018-Apr-24 05:29N 34°42' E 134°32'0 0.0
2018-Apr-24 05:00N 34°42' E 134°32'4 8.2
2018-Apr-24 04:28N 34°46' E 134°35'0 0.1
2018-Apr-24 01:22N 34°46' E 134°35'4 8.6
2018-Apr-24 00:50N 34°43' E 134°40'411.9
2018-Apr-24 00:30N 34°42' E 134°44'611.4
2018-Apr-24 00:00N 34°39' E 134°50'510.1
2018-Apr-23 23:30N 34°37' E 134°56'510.3
2018-Apr-23 23:00N 34°37' E 135°02'510.1
2018-Apr-23 22:30N 34°32' E 135°05'612.6
2018-Apr-23 22:00N 34°26' E 135°03'713.0
2018-Apr-23 21:30N 34°20' E 135°00'612.7
2018-Apr-23 21:00N 34°14' E 134°60'713.1
2018-Apr-23 20:30N 34°07' E 135°01'613.0
2018-Apr-23 20:00N 34°01' E 135°01'612.9
2018-Apr-23 19:30N 33°54' E 135°02'102 8.0
2018-Apr-23 06:43N 34°42' E 136°52'311.5
2018-Apr-23 06:29N 34°44' E 136°50'511.4
2018-Apr-23 06:00N 34°49' E 136°47'611.4
2018-Apr-23 05:31N 34°54' E 136°44'611.3
2018-Apr-23 05:00N 34°58' E 136°40'1 1.1
2018-Apr-23 04:29N 34°59' E 136°39'0 0.0
2018-Apr-23 03:59N 34°59' E 136°39'0 0.0
2018-Apr-23 03:29N 34°59' E 136°39'0 0.0
2018-Apr-23 02:47N 34°59' E 136°39'0 0.0
2018-Apr-23 02:23N 34°59' E 136°39'0 0.0
2018-Apr-22 23:56N 34°59' E 136°39'2 3.8
2018-Apr-22 23:30N 34°58' E 136°41'612.7
2018-Apr-22 23:01N 34°52' E 136°44'712.8
2018-Apr-22 22:30N 34°46' E 136°47'612.9
2018-Apr-22 22:00N 34°41' E 136°51'36 9.9
2018-Apr-22 18:18N 34°05' E 136°43'85 9.6
2018-Apr-22 09:31N 33°51' E 135°03'212.7
2018-Apr-22 09:23N 33°53' E 135°01'512.6
2018-Apr-22 09:00N 33°58' E 135°01'612.3
2018-Apr-22 08:31N 34°03' E 135°00'612.3
2018-Apr-22 08:00N 34°10' E 134°60'713.8
2018-Apr-22 07:31N 34°16' E 134°59'612.6
2018-Apr-22 07:00N 34°23' E 135°00'611.7
2018-Apr-22 06:31N 34°28' E 135°02'612.0
2018-Apr-22 06:01N 34°34' E 135°03'5 9.4
2018-Apr-22 05:30N 34°37' E 134°58'611.7
2018-Apr-22 05:00N 34°38' E 134°51'612.2
2018-Apr-22 04:30N 34°41' E 134°45'612.4
2018-Apr-22 04:00N 34°44' E 134°38'2 0.3
2018-Apr-21 19:13N 34°45' E 134°36'0 0.0
2018-Apr-21 18:55N 34°45' E 134°36'0 0.0
2018-Apr-21 18:19N 34°45' E 134°36'0 0.0
2018-Apr-21 17:31N 34°45' E 134°36'0 0.0
2018-Apr-21 17:01N 34°45' E 134°36'0 0.1
2018-Apr-21 16:55N 34°45' E 134°36'0 0.0
2018-Apr-21 16:25N 34°45' E 134°36'0 0.0
2018-Apr-21 15:37N 34°45' E 134°36'0 0.0
2018-Apr-21 15:07N 34°45' E 134°36'0 0.0
2018-Apr-21 14:55N 34°45' E 134°36'0 0.0
2018-Apr-21 14:25N 34°45' E 134°36'1 3.2
2018-Apr-21 14:00N 34°44' E 134°34'612.1
2018-Apr-21 13:29N 34°41' E 134°28'912.2
2018-Apr-21 12:44N 34°37' E 134°18'612.1
2018-Apr-21 12:13N 34°33' E 134°11'312.1
2018-Apr-21 12:00N 34°32' E 134°09'810.7
2018-Apr-21 11:16N 34°27' E 134°02'310.8
2018-Apr-21 11:00N 34°25' E 133°59'612.2
2018-Apr-21 10:30N 34°25' E 133°52'26 1.1
2018-Apr-20 10:54N 34°21' E 134°22'712.2
2018-Apr-20 10:20N 34°18' E 134°30'512.4
2018-Apr-20 09:57N 34°17' E 134°35'511.7
2018-Apr-20 09:29N 34°13' E 134°40'611.9
2018-Apr-20 09:00N 34°09' E 134°44'612.1
2018-Apr-20 08:30N 34°04' E 134°49'712.2
2018-Apr-20 07:57N 33°59' E 134°54'512.0
2018-Apr-20 07:30N 33°55' E 134°58'17410.6
2018-Apr-19 15:02N 34°33' E 138°24'112.3
2018-Apr-19 14:56N 34°33' E 138°25'511.8
2018-Apr-19 14:29N 34°33' E 138°32'911.8
2018-Apr-19 13:46N 34°34' E 138°42'411.0
2018-Apr-19 13:21N 34°35' E 138°48'612.5
2018-Apr-19 12:54N 34°36' E 138°54'712.0
2018-Apr-19 12:17N 34°40' E 139°01'312.2
2018-Apr-19 12:00N 34°43' E 139°03'611.6
2018-Apr-19 11:30N 34°48' E 139°07'611.4
2018-Apr-19 10:58N 34°53' E 139°11'711.6
2018-Apr-19 10:22N 34°57' E 139°18'411.4
2018-Apr-19 10:00N 34°59' E 139°23'510.8
2018-Apr-19 09:30N 35°02' E 139°29'611.4
2018-Apr-19 09:00N 35°04' E 139°35'612.4
2018-Apr-19 08:30N 35°07' E 139°41'611.8
2018-Apr-19 08:00N 35°12' E 139°46'510.2
2018-Apr-19 07:30N 35°17' E 139°45'511.0
2018-Apr-19 07:00N 35°22' E 139°42'510.6
2018-Apr-19 06:30N 35°27' E 139°46'611.2
2018-Apr-19 06:00N 35°30' E 139°51'711.5
2018-Apr-19 05:23N 35°32' E 139°60'3 7.9
2018-Apr-19 05:00N 35°32' E 140°03'0 0.0
2018-Apr-19 00:18N 35°32' E 140°03'0 0.0
2018-Apr-18 23:48N 35°32' E 140°03'1 3.4
2018-Apr-18 23:30N 35°32' E 140°02'3 5.4
2018-Apr-18 23:00N 35°31' E 139°59'3 7.0
2018-Apr-18 22:30N 35°29' E 139°56'1 1.1
2018-Apr-18 21:57N 35°28' E 139°55'0 0.0
2018-Apr-18 21:15N 35°28' E 139°55'0 0.0
2018-Apr-18 20:42N 35°28' E 139°55'0 0.0
2018-Apr-18 20:30N 35°28' E 139°55'0 0.1
2018-Apr-18 19:57N 35°28' E 139°55'0 0.0
2018-Apr-18 19:30N 35°28' E 139°55'0 0.0
2018-Apr-18 19:00N 35°28' E 139°55'0 0.0
2018-Apr-18 18:30N 35°28' E 139°55'0 0.0
2018-Apr-18 17:57N 35°28' E 139°55'0 0.0
2018-Apr-18 17:30N 35°28' E 139°55'0 0.0
2018-Apr-18 17:00N 35°28' E 139°55'0 0.0
2018-Apr-18 16:30N 35°28' E 139°55'0 0.1
2018-Apr-18 16:00N 35°28' E 139°55'0 0.0
2018-Apr-18 15:27N 35°28' E 139°55'0 0.0
2018-Apr-18 15:00N 35°28' E 139°55'0 0.0
2018-Apr-18 14:15N 35°28' E 139°55'0 0.0
2018-Apr-18 14:00N 35°28' E 139°55'0 0.0
2018-Apr-18 13:30N 35°28' E 139°55'0 0.0
2018-Apr-18 12:54N 35°28' E 139°55'0 0.0
2018-Apr-18 12:27N 35°28' E 139°55'0 0.0
2018-Apr-18 12:00N 35°28' E 139°55'0 0.0
2018-Apr-18 11:30N 35°28' E 139°55'3 5.2
2018-Apr-18 11:00N 35°28' E 139°52'611.7
2018-Apr-18 10:30N 35°25' E 139°47'611.6
2018-Apr-18 10:00N 35°19' E 139°44'611.6
2018-Apr-18 09:30N 35°14' E 139°47'611.7
2018-Apr-18 09:00N 35°08' E 139°46'611.2
2018-Apr-18 08:28N 35°03' E 139°42'511.6
2018-Apr-18 08:00N 34°60' E 139°36'1812.0
2018-Apr-18 06:29N 34°49' E 139°18'612.5
2018-Apr-18 05:59N 34°44' E 139°14'611.7
2018-Apr-18 05:30N 34°40' E 139°09'811.0
2018-Apr-18 04:49N 34°37' E 139°01'411.1
2018-Apr-18 04:29N 34°35' E 138°56'612.3
2018-Apr-18 04:00N 34°34' E 138°49'712.2
2018-Apr-18 03:26N 34°33' E 138°41'612.0
2018-Apr-18 02:58N 34°32' E 138°34'811.6
2018-Apr-18 02:18N 34°31' E 138°25'711.2
2018-Apr-18 01:39N 34°31' E 138°16'211.3
2018-Apr-18 01:30N 34°30' E 138°14'74 9.2
2018-Apr-17 17:25N 34°09' E 136°48'90 9.0
2018-Apr-17 07:26N 33°51' E 135°02'612.8
2018-Apr-17 07:00N 33°55' E 134°57'613.0
2018-Apr-17 06:30N 34°00' E 134°52'713.2
2018-Apr-17 06:00N 34°05' E 134°47'813.9
2018-Apr-17 05:24N 34°12' E 134°41'614.2
2018-Apr-17 05:00N 34°17' E 134°38'612.9
2018-Apr-17 04:30N 34°23' E 134°38'612.6
2018-Apr-17 04:00N 34°30' E 134°39'612.4
2018-Apr-17 03:30N 34°36' E 134°38'612.5
2018-Apr-17 03:00N 34°42' E 134°37'4 1.0
2018-Apr-16 22:59N 34°46' E 134°35'1 1.4
2018-Apr-16 22:29N 34°45' E 134°36'0 0.0
2018-Apr-16 21:53N 34°45' E 134°36'0 0.0
2018-Apr-16 21:29N 34°45' E 134°36'0 0.0
2018-Apr-16 20:59N 34°45' E 134°36'0 0.0
2018-Apr-16 17:11N 34°45' E 134°36'0 0.0
2018-Apr-16 16:59N 34°45' E 134°36'2 3.6
2018-Apr-16 16:30N 34°44' E 134°34'612.5
2018-Apr-16 15:59N 34°41' E 134°27'912.5
2018-Apr-16 15:16N 34°37' E 134°18'812.5
2018-Apr-16 14:39N 34°33' E 134°10'7710.9
2018-Apr-16 07:35N 34°05' E 132°42'111.5
2018-Apr-16 07:30N 34°05' E 132°41'611.6
2018-Apr-16 07:00N 34°03' E 132°35'710.7
2018-Apr-16 06:21N 34°03' E 132°26'612.7
2018-Apr-16 05:53N 34°07' E 132°22'512.6
2018-Apr-16 05:30N 34°10' E 132°17'3 5.6
2018-Apr-16 05:00N 34°12' E 132°15'0 0.0
2018-Apr-15 23:15N 34°12' E 132°15'0 0.2
2018-Apr-15 23:01N 34°12' E 132°15'1 2.1
2018-Apr-15 22:30N 34°12' E 132°16'0 0.3
2018-Apr-15 21:55N 34°12' E 132°16'0 0.1
2018-Apr-15 21:28N 34°12' E 132°16'0 0.0
2018-Apr-15 20:58N 34°12' E 132°16'0 0.0
2018-Apr-15 20:28N 34°12' E 132°16'0 0.0
2018-Apr-15 19:58N 34°12' E 132°16'0 0.0
2018-Apr-15 19:28N 34°12' E 132°16'0 0.0
2018-Apr-15 18:55N 34°12' E 132°16'0 0.0
2018-Apr-15 18:28N 34°12' E 132°16'0 0.0
2018-Apr-15 17:58N 34°12' E 132°16'2 3.6
2018-Apr-15 17:30N 34°11' E 132°17'612.3
2018-Apr-15 17:00N 34°06' E 132°23'811.5
2018-Apr-15 16:16N 34°02' E 132°31'313.2
2018-Apr-15 16:00N 34°03' E 132°35'8711.9
2018-Apr-15 08:41N 34°35' E 134°13'1612.8
2018-Apr-15 07:27N 34°43' E 134°30'5 0.3
2018-Apr-14 15:26N 34°45' E 134°36'2512.1
2018-Apr-14 13:23N 34°33' E 134°10'  

Dump ship's entire track history